地図

経路データ

SID SEASON NUMBER BASIN SUBBASIN NAME ISO_TIME NATURE LAT LON WMO_WIND WMO_PRES WMO_AGENCY TRACK_TYPE DIST2LAND LANDFALL IFLAG USA_AGENCY USA_ATCF_ID USA_LAT USA_LON USA_RECORD USA_STATUS USA_WIND USA_PRES USA_SSHS USA_R34_NE USA_R34_SE USA_R34_SW USA_R34_NW USA_R50_NE USA_R50_SE USA_R50_SW USA_R50_NW USA_R64_NE USA_R64_SE USA_R64_SW USA_R64_NW USA_POCI USA_ROCI USA_RMW USA_EYE TOKYO_LAT TOKYO_LON TOKYO_GRADE TOKYO_WIND TOKYO_PRES TOKYO_R50_DIR TOKYO_R50_LONG TOKYO_R50_SHORT TOKYO_R30_DIR TOKYO_R30_LONG TOKYO_R30_SHORT TOKYO_LAND CMA_LAT CMA_LON CMA_CAT CMA_WIND CMA_PRES HKO_LAT HKO_LON HKO_CAT HKO_WIND HKO_PRES NEWDELHI_LAT NEWDELHI_LON NEWDELHI_GRADE NEWDELHI_WIND NEWDELHI_PRES NEWDELHI_CI NEWDELHI_DP NEWDELHI_POCI REUNION_LAT REUNION_LON REUNION_TYPE REUNION_WIND REUNION_PRES REUNION_TNUM REUNION_CI REUNION_RMW REUNION_R34_NE REUNION_R34_SE REUNION_R34_SW REUNION_R34_NW REUNION_R50_NE REUNION_R50_SE REUNION_R50_SW REUNION_R50_NW REUNION_R64_NE REUNION_R64_SE REUNION_R64_SW REUNION_R64_NW BOM_LAT BOM_LON BOM_TYPE BOM_WIND BOM_PRES BOM_TNUM BOM_CI BOM_RMW BOM_R34_NE BOM_R34_SE BOM_R34_SW BOM_R34_NW BOM_R50_NE BOM_R50_SE BOM_R50_SW BOM_R50_NW BOM_R64_NE BOM_R64_SE BOM_R64_SW BOM_R64_NW BOM_ROCI BOM_POCI BOM_EYE BOM_POS_METHOD BOM_PRES_METHOD NADI_LAT NADI_LON NADI_CAT NADI_WIND NADI_PRES WELLINGTON_LAT WELLINGTON_LON WELLINGTON_WIND WELLINGTON_PRES DS824_LAT DS824_LON DS824_STAGE DS824_WIND DS824_PRES TD9636_LAT TD9636_LON TD9636_STAGE TD9636_WIND TD9636_PRES TD9635_LAT TD9635_LON TD9635_WIND TD9635_PRES TD9635_ROCI NEUMANN_LAT NEUMANN_LON NEUMANN_CLASS NEUMANN_WIND NEUMANN_PRES MLC_LAT MLC_LON MLC_CLASS MLC_WIND MLC_PRES USA_GUST BOM_GUST BOM_GUST_PER REUNION_GUST REUNION_GUST_PER USA_SEAHGT USA_SEARAD_NE USA_SEARAD_SE USA_SEARAD_SW USA_SEARAD_NW STORM_SPEED STORM_DIR
1919070S15070 1919 7 SI MM NOT_NAMED 1919-03-11 06:00:00 NR -14.8000 70.1000 reunion spur-split 1441 1431 _____O________ -1 -14.8000 70.1000 99 9.90000 2 306
1919070S15070 1919 7 SI MM NOT_NAMED 1919-03-11 09:00:00 NR -14.7383 70.0091 spur-split 1436 1427 _____P________ -1 -14.7383 70.0091 99 2 303
1919070S15070 1919 7 SI MM NOT_NAMED 1919-03-11 12:00:00 NR -14.6895 69.9198 spur-split 1427 1417 _____P________ -1 -14.6895 69.9198 99 2 293
1919070S15070 1919 7 SI MM NOT_NAMED 1919-03-11 15:00:00 NR -14.6668 69.8336 spur-split 1417 1417 _____P________ -1 -14.6668 69.8336 99 2 272
1919070S15070 1919 7 SI MM NOT_NAMED 1919-03-11 18:00:00 NR -14.6832 69.7519 spur-split 1417 1408 _____P________ -1 -14.6832 69.7519 99 2 241
1919070S15070 1919 7 SI MM NOT_NAMED 1919-03-11 21:00:00 NR -14.7516 69.6763 spur-split 1403 1388 _____P________ -1 -14.7516 69.6763 99 2 214
1919070S15070 1919 7 SI MM NOT_NAMED 1919-03-12 00:00:00 NR -14.8852 69.6081 spur-split 1388 1378 _____P________ -1 -14.8852 69.6081 99 4 200
1919070S15070 1919 7 SI MM NOT_NAMED 1919-03-12 03:00:00 NR -15.0969 69.5489 spur-split 1368 1353 _____P________ -1 -15.0969 69.5489 99 5 191
1919070S15070 1919 7 SI MM NOT_NAMED 1919-03-12 06:00:00 NR -15.4000 69.5000 reunion spur-split 1353 1335 _____O________ -1 -15.4000 69.5000 99 9.90000 7 187
1919070S15070 1919 7 SI MM NOT_NAMED 1919-03-12 09:00:00 NR -15.8011 69.4626 spur-split 1335 1303 _____P________ -1 -15.8011 69.4626 99 9 183
1919070S15070 1919 7 SI MM NOT_NAMED 1919-03-12 12:00:00 NR -16.2813 69.4367 spur-split 1303 1283 _____P________ -1 -16.2813 69.4367 99 10 182
1919070S15070 1919 7 SI MM NOT_NAMED 1919-03-12 15:00:00 NR -16.8153 69.4218 spur-split 1283 1266 _____P________ -1 -16.8153 69.4218 99 11 181
1919070S15070 1919 7 SI MM NOT_NAMED 1919-03-12 18:00:00 NR -17.3775 69.4175 spur-split 1262 1247 _____P________ -1 -17.3775 69.4175 99 11 179
1919070S15070 1919 7 SI MM NOT_NAMED 1919-03-12 21:00:00 NR -17.9426 69.4236 spur-split 1247 1232 _____P________ -1 -17.9426 69.4236 99 11 0
1919070S15070 1919 7 SI MM NOT_NAMED 1919-03-13 00:00:00 NR -18.4849 69.4396 spur-split 1232 1228 _____P________ -1 -18.4849 69.4396 99 10 177
1919070S15070 1919 7 SI MM NOT_NAMED 1919-03-13 03:00:00 NR -18.9792 69.4652 spur-split 1233 1227 _____P________ -1 -18.9792 69.4652 99 9 176
1919070S15070 1919 7 SI MM NOT_NAMED 1919-03-13 06:00:00 NR -19.4000 69.5000 reunion spur-split 1227 1224 _____O________ -1 -19.4000 69.5000 99 9.90000 8 175
1919070S15070 1919 7 SI MM NOT_NAMED 1919-03-13 09:00:00 NR -19.7283 69.5434 spur-split 1224 1223 _____P________ -1 -19.7283 69.5434 99 6 171
1919070S15070 1919 7 SI MM NOT_NAMED 1919-03-13 12:00:00 NR -19.9702 69.5946 spur-split 1231 1231 _____P________ -1 -19.9702 69.5946 99 4 166
1919070S15070 1919 7 SI MM NOT_NAMED 1919-03-13 15:00:00 NR -20.1381 69.6522 spur-split 1241 1241 _____P________ -1 -20.1381 69.6522 99 3 158
1919070S15070 1919 7 SI MM NOT_NAMED 1919-03-13 18:00:00 NR -20.2445 69.7153 spur-split 1241 1240 _____P________ -1 -20.2445 69.7153 99 2 143
1919070S15070 1919 7 SI MM NOT_NAMED 1919-03-13 21:00:00 NR -20.3015 69.7827 spur-split 1251 1251 _____P________ -1 -20.3015 69.7827 99 2 120
1919070S15070 1919 7 SI MM NOT_NAMED 1919-03-14 00:00:00 NR -20.3216 69.8534 spur-split 1261 1261 _____P________ -1 -20.3216 69.8534 99 1 96
1919070S15070 1919 7 SI MM NOT_NAMED 1919-03-14 03:00:00 NR -20.3170 69.9262 spur-split 1261 1261 _____P________ -1 -20.3170 69.9262 99 1 81
1919070S15070 1919 7 SI MM NOT_NAMED 1919-03-14 06:00:00 NR -20.3000 70.0000 reunion spur-split 1271 _____O________ -1 -20.3000 70.0000 99 9.90000 1 76

IBTrACS Databaseについて

本データベースは、米国NOAAが公開する1842年以降の世界の熱帯低気圧のベストトラックデータアーカイブInternational Best Track Archive for Climate Stewardship (IBTrACS)を、ウェブで閲覧しやすい形式に変換したものです。

最終更新日:2021-12-01